sensor_id;sensor_type;location;lat;lon;timestamp;P1;durP1;ratioP1;P2;durP2;ratioP2
49900;SDS011;35789;48.414;12.768;2022-10-16T00:00:00;28.6;;;11.7;;
49900;SDS011;35789;48.414;12.768;2022-10-16T00:05:00;28.6;;;11.7;;
49900;SDS011;35789;48.414;12.768;2022-10-16T00:10:00;28.6;;;11.7;;
49900;SDS011;35789;48.414;12.768;2022-10-16T00:15:00;16.1;;;5.0;;
49900;SDS011;35789;48.414;12.768;2022-10-16T00:20:00;16.1;;;5.0;;
49900;SDS011;35789;48.414;12.768;2022-10-16T00:25:00;16.1;;;5.0;;
49900;SDS011;35789;48.414;12.768;2022-10-16T00:30:00;16.1;;;5.0;;
49900;SDS011;35789;48.414;12.768;2022-10-16T00:35:00;16.1;;;5.0;;
49900;SDS011;35789;48.414;12.768;2022-10-16T00:40:00;16.1;;;5.0;;
49900;SDS011;35789;48.414;12.768;2022-10-16T00:45:00;10.9;;;6.1;;
49900;SDS011;35789;48.414;12.768;2022-10-16T00:50:06;10.9;;;6.1;;
49900;SDS011;35789;48.414;12.768;2022-10-16T00:55:02;10.9;;;6.1;;
49900;SDS011;35789;48.414;12.768;2022-10-16T01:00:01;10.9;;;6.1;;
49900;SDS011;35789;48.414;12.768;2022-10-16T01:05:00;10.9;;;6.1;;
49900;SDS011;35789;48.414;12.768;2022-10-16T01:10:07;10.9;;;6.1;;
49900;SDS011;35789;48.414;12.768;2022-10-16T01:15:04;6.6;;;3.4;;
49900;SDS011;35789;48.414;12.768;2022-10-16T01:20:04;6.6;;;3.4;;
49900;SDS011;35789;48.414;12.768;2022-10-16T01:25:03;6.6;;;3.4;;
49900;SDS011;35789;48.414;12.768;2022-10-16T01:30:05;6.6;;;3.4;;
49900;SDS011;35789;48.414;12.768;2022-10-16T01:35:04;6.6;;;3.4;;
49900;SDS011;35789;48.414;12.768;2022-10-16T01:40:03;6.6;;;3.4;;
49900;SDS011;35789;48.414;12.768;2022-10-16T01:45:01;12.4;;;2.7;;
49900;SDS011;35789;48.414;12.768;2022-10-16T01:50:02;12.4;;;2.7;;
49900;SDS011;35789;48.414;12.768;2022-10-16T01:55:02;12.4;;;2.7;;
49900;SDS011;35789;48.414;12.768;2022-10-16T02:00:08;12.4;;;2.7;;
49900;SDS011;35789;48.414;12.768;2022-10-16T02:05:05;12.4;;;2.7;;
49900;SDS011;35789;48.414;12.768;2022-10-16T02:10:00;12.4;;;2.7;;
49900;SDS011;35789;48.414;12.768;2022-10-16T02:15:00;8.3;;;2.7;;
49900;SDS011;35789;48.414;12.768;2022-10-16T02:20:00;8.3;;;2.7;;
49900;SDS011;35789;48.414;12.768;2022-10-16T02:25:04;8.3;;;2.7;;
49900;SDS011;35789;48.414;12.768;2022-10-16T02:30:04;8.3;;;2.7;;
49900;SDS011;35789;48.414;12.768;2022-10-16T02:35:01;8.3;;;2.7;;
49900;SDS011;35789;48.414;12.768;2022-10-16T02:40:00;11.8;;;2.5;;
49900;SDS011;35789;48.414;12.768;2022-10-16T02:45:00;11.8;;;2.5;;
49900;SDS011;35789;48.414;12.768;2022-10-16T02:50:00;11.8;;;2.5;;
49900;SDS011;35789;48.414;12.768;2022-10-16T02:55:00;11.8;;;2.5;;
49900;SDS011;35789;48.414;12.768;2022-10-16T03:00:00;11.8;;;2.5;;
49900;SDS011;35789;48.414;12.768;2022-10-16T03:05:00;11.8;;;2.5;;
49900;SDS011;35789;48.414;12.768;2022-10-16T03:10:00;7.6;;;2.6;;
49900;SDS011;35789;48.414;12.768;2022-10-16T03:15:00;7.6;;;2.6;;
49900;SDS011;35789;48.414;12.768;2022-10-16T03:20:00;7.6;;;2.6;;
49900;SDS011;35789;48.414;12.768;2022-10-16T03:25:00;7.6;;;2.6;;
49900;SDS011;35789;48.414;12.768;2022-10-16T03:30:00;7.6;;;2.6;;
49900;SDS011;35789;48.414;12.768;2022-10-16T03:35:00;7.6;;;2.6;;
49900;SDS011;35789;48.414;12.768;2022-10-16T03:40:00;7.0;;;2.5;;
49900;SDS011;35789;48.414;12.768;2022-10-16T03:45:00;7.0;;;2.5;;
49900;SDS011;35789;48.414;12.768;2022-10-16T03:50:00;7.0;;;2.5;;
49900;SDS011;35789;48.414;12.768;2022-10-16T03:55:00;7.0;;;2.5;;
49900;SDS011;35789;48.414;12.768;2022-10-16T04:00:00;7.0;;;2.5;;
49900;SDS011;35789;48.414;12.768;2022-10-16T04:05:00;7.0;;;2.5;;
49900;SDS011;35789;48.414;12.768;2022-10-16T04:10:01;6.7;;;2.8;;
49900;SDS011;35789;48.414;12.768;2022-10-16T04:15:00;6.7;;;2.8;;
49900;SDS011;35789;48.414;12.768;2022-10-16T04:20:00;6.7;;;2.8;;
49900;SDS011;35789;48.414;12.768;2022-10-16T04:25:00;6.7;;;2.8;;
49900;SDS011;35789;48.414;12.768;2022-10-16T04:30:00;6.7;;;2.8;;
49900;SDS011;35789;48.414;12.768;2022-10-16T04:35:00;6.7;;;2.8;;
49900;SDS011;35789;48.414;12.768;2022-10-16T04:40:00;4.6;;;1.9;;
49900;SDS011;35789;48.414;12.768;2022-10-16T04:45:00;4.6;;;1.9;;
49900;SDS011;35789;48.414;12.768;2022-10-16T04:50:00;4.6;;;1.9;;
49900;SDS011;35789;48.414;12.768;2022-10-16T04:55:00;4.6;;;1.9;;
49900;SDS011;35789;48.414;12.768;2022-10-16T05:00:00;4.6;;;1.9;;
49900;SDS011;35789;48.414;12.768;2022-10-16T05:05:00;4.6;;;1.9;;
49900;SDS011;35789;48.414;12.768;2022-10-16T05:10:00;7.2;;;2.2;;
49900;SDS011;35789;48.414;12.768;2022-10-16T05:15:00;7.2;;;2.2;;
49900;SDS011;35789;48.414;12.768;2022-10-16T05:20:00;7.2;;;2.2;;
49900;SDS011;35789;48.414;12.768;2022-10-16T05:25:00;7.2;;;2.2;;
49900;SDS011;35789;48.414;12.768;2022-10-16T05:30:00;7.2;;;2.2;;
49900;SDS011;35789;48.414;12.768;2022-10-16T05:35:00;7.2;;;2.2;;
49900;SDS011;35789;48.414;12.768;2022-10-16T05:40:00;4.7;;;2.1;;
49900;SDS011;35789;48.414;12.768;2022-10-16T05:45:00;4.7;;;2.1;;
49900;SDS011;35789;48.414;12.768;2022-10-16T05:50:00;4.7;;;2.1;;
49900;SDS011;35789;48.414;12.768;2022-10-16T05:55:00;4.7;;;2.1;;
49900;SDS011;35789;48.414;12.768;2022-10-16T06:00:00;4.7;;;2.1;;
49900;SDS011;35789;48.414;12.768;2022-10-16T06:05:00;4.7;;;2.1;;
49900;SDS011;35789;48.414;12.768;2022-10-16T06:10:00;9.9;;;5.5;;
49900;SDS011;35789;48.414;12.768;2022-10-16T06:15:00;9.9;;;5.5;;
49900;SDS011;35789;48.414;12.768;2022-10-16T06:20:00;9.9;;;5.5;;
49900;SDS011;35789;48.414;12.768;2022-10-16T06:25:00;9.9;;;5.5;;
49900;SDS011;35789;48.414;12.768;2022-10-16T06:30:00;9.9;;;5.5;;
49900;SDS011;35789;48.414;12.768;2022-10-16T06:35:00;9.9;;;5.5;;
49900;SDS011;35789;48.414;12.768;2022-10-16T06:40:00;14.2;;;7.4;;
49900;SDS011;35789;48.414;12.768;2022-10-16T06:45:00;14.2;;;7.4;;
49900;SDS011;35789;48.414;12.768;2022-10-16T06:50:00;14.2;;;7.4;;
49900;SDS011;35789;48.414;12.768;2022-10-16T06:55:00;14.2;;;7.4;;
49900;SDS011;35789;48.414;12.768;2022-10-16T07:00:00;14.2;;;7.4;;
49900;SDS011;35789;48.414;12.768;2022-10-16T07:05:00;14.2;;;7.4;;
49900;SDS011;35789;48.414;12.768;2022-10-16T07:10:00;24.0;;;12.8;;
49900;SDS011;35789;48.414;12.768;2022-10-16T07:15:00;24.0;;;12.8;;
49900;SDS011;35789;48.414;12.768;2022-10-16T07:20:00;24.0;;;12.8;;
49900;SDS011;35789;48.414;12.768;2022-10-16T07:25:00;24.0;;;12.8;;
49900;SDS011;35789;48.414;12.768;2022-10-16T07:35:00;24.0;;;12.8;;
49900;SDS011;35789;48.414;12.768;2022-10-16T07:40:00;49.3;;;20.7;;
49900;SDS011;35789;48.414;12.768;2022-10-16T07:45:00;49.3;;;20.7;;
49900;SDS011;35789;48.414;12.768;2022-10-16T07:50:00;49.3;;;20.7;;
49900;SDS011;35789;48.414;12.768;2022-10-16T07:55:00;49.3;;;20.7;;
49900;SDS011;35789;48.414;12.768;2022-10-16T08:00:00;49.3;;;20.7;;
49900;SDS011;35789;48.414;12.768;2022-10-16T08:05:00;49.3;;;20.7;;
49900;SDS011;35789;48.414;12.768;2022-10-16T08:10:00;6.3;;;3.3;;
49900;SDS011;35789;48.414;12.768;2022-10-16T08:15:00;6.3;;;3.3;;
49900;SDS011;35789;48.414;12.768;2022-10-16T08:20:00;6.3;;;3.3;;
49900;SDS011;35789;48.414;12.768;2022-10-16T08:25:00;6.3;;;3.3;;
49900;SDS011;35789;48.414;12.768;2022-10-16T08:30:00;6.3;;;3.3;;
49900;SDS011;35789;48.414;12.768;2022-10-16T08:35:00;6.3;;;3.3;;
49900;SDS011;35789;48.414;12.768;2022-10-16T08:40:00;5.0;;;2.6;;
49900;SDS011;35789;48.414;12.768;2022-10-16T08:45:15;5.0;;;2.6;;
49900;SDS011;35789;48.414;12.768;2022-10-16T08:50:07;5.0;;;2.6;;
49900;SDS011;35789;48.414;12.768;2022-10-16T08:55:00;5.0;;;2.6;;
49900;SDS011;35789;48.414;12.768;2022-10-16T09:00:08;5.0;;;2.6;;
49900;SDS011;35789;48.414;12.768;2022-10-16T09:05:17;5.0;;;2.6;;
49900;SDS011;35789;48.414;12.768;2022-10-16T09:10:11;6.3;;;3.0;;
49900;SDS011;35789;48.414;12.768;2022-10-16T09:15:07;6.3;;;3.0;;
49900;SDS011;35789;48.414;12.768;2022-10-16T09:20:13;6.3;;;3.0;;
49900;SDS011;35789;48.414;12.768;2022-10-16T09:25:00;6.3;;;3.0;;
49900;SDS011;35789;48.414;12.768;2022-10-16T09:30:00;6.3;;;3.0;;
49900;SDS011;35789;48.414;12.768;2022-10-16T09:35:01;6.3;;;3.0;;
49900;SDS011;35789;48.414;12.768;2022-10-16T09:40:00;8.5;;;2.7;;
49900;SDS011;35789;48.414;12.768;2022-10-16T09:45:00;8.5;;;2.7;;
49900;SDS011;35789;48.414;12.768;2022-10-16T09:50:03;8.5;;;2.7;;
49900;SDS011;35789;48.414;12.768;2022-10-16T09:55:03;8.5;;;2.7;;
49900;SDS011;35789;48.414;12.768;2022-10-16T10:00:08;8.5;;;2.7;;
49900;SDS011;35789;48.414;12.768;2022-10-16T10:05:01;8.5;;;2.7;;
49900;SDS011;35789;48.414;12.768;2022-10-16T10:10:02;5.9;;;1.9;;
49900;SDS011;35789;48.414;12.768;2022-10-16T10:15:04;5.9;;;1.9;;
49900;SDS011;35789;48.414;12.768;2022-10-16T10:20:15;5.9;;;1.9;;
49900;SDS011;35789;48.414;12.768;2022-10-16T10:30:02;5.9;;;1.9;;
49900;SDS011;35789;48.414;12.768;2022-10-16T10:35:11;5.9;;;1.9;;
49900;SDS011;35789;48.414;12.768;2022-10-16T10:40:06;6.3;;;2.3;;
49900;SDS011;35789;48.414;12.768;2022-10-16T10:45:13;6.3;;;2.3;;
49900;SDS011;35789;48.414;12.768;2022-10-16T10:50:07;6.3;;;2.3;;
49900;SDS011;35789;48.414;12.768;2022-10-16T10:55:09;6.3;;;2.3;;
49900;SDS011;35789;48.414;12.768;2022-10-16T11:00:06;6.3;;;2.3;;
49900;SDS011;35789;48.414;12.768;2022-10-16T11:05:18;6.3;;;2.3;;
49900;SDS011;35789;48.414;12.768;2022-10-16T11:10:03;7.6;;;3.1;;
49900;SDS011;35789;48.414;12.768;2022-10-16T11:15:04;7.6;;;3.1;;
49900;SDS011;35789;48.414;12.768;2022-10-16T11:20:05;7.6;;;3.1;;
49900;SDS011;35789;48.414;12.768;2022-10-16T11:25:04;7.6;;;3.1;;
49900;SDS011;35789;48.414;12.768;2022-10-16T11:30:04;7.6;;;3.1;;
49900;SDS011;35789;48.414;12.768;2022-10-16T11:35:06;7.6;;;3.1;;
49900;SDS011;35789;48.414;12.768;2022-10-16T11:40:10;4.0;;;1.8;;
49900;SDS011;35789;48.414;12.768;2022-10-16T11:45:03;4.0;;;1.8;;
49900;SDS011;35789;48.414;12.768;2022-10-16T11:50:03;4.0;;;1.8;;
49900;SDS011;35789;48.414;12.768;2022-10-16T11:55:05;4.0;;;1.8;;
49900;SDS011;35789;48.414;12.768;2022-10-16T12:00:03;4.0;;;1.8;;
49900;SDS011;35789;48.414;12.768;2022-10-16T12:05:11;4.0;;;1.8;;
49900;SDS011;35789;48.414;12.768;2022-10-16T12:10:09;6.4;;;2.3;;
49900;SDS011;35789;48.414;12.768;2022-10-16T12:15:01;6.4;;;2.3;;
49900;SDS011;35789;48.414;12.768;2022-10-16T12:20:12;6.4;;;2.3;;
49900;SDS011;35789;48.414;12.768;2022-10-16T12:25:00;6.4;;;2.3;;
49900;SDS011;35789;48.414;12.768;2022-10-16T12:30:02;6.4;;;2.3;;
49900;SDS011;35789;48.414;12.768;2022-10-16T12:35:01;6.4;;;2.3;;
49900;SDS011;35789;48.414;12.768;2022-10-16T12:40:11;5.4;;;2.3;;
49900;SDS011;35789;48.414;12.768;2022-10-16T12:45:01;5.4;;;2.3;;
49900;SDS011;35789;48.414;12.768;2022-10-16T12:50:00;5.4;;;2.3;;
49900;SDS011;35789;48.414;12.768;2022-10-16T12:55:00;5.4;;;2.3;;
49900;SDS011;35789;48.414;12.768;2022-10-16T13:00:04;5.4;;;2.3;;
49900;SDS011;35789;48.414;12.768;2022-10-16T13:05:14;5.4;;;2.3;;
49900;SDS011;35789;48.414;12.768;2022-10-16T13:10:09;4.1;;;1.6;;
49900;SDS011;35789;48.414;12.768;2022-10-16T13:15:20;4.1;;;1.6;;
49900;SDS011;35789;48.414;12.768;2022-10-16T13:20:05;4.1;;;1.6;;
49900;SDS011;35789;48.414;12.768;2022-10-16T13:25:09;4.1;;;1.6;;
49900;SDS011;35789;48.414;12.768;2022-10-16T13:30:07;4.1;;;1.6;;
49900;SDS011;35789;48.414;12.768;2022-10-16T13:35:00;4.1;;;1.6;;
49900;SDS011;35789;48.414;12.768;2022-10-16T13:40:12;5.8;;;1.8;;
49900;SDS011;35789;48.414;12.768;2022-10-16T13:45:00;5.8;;;1.8;;
49900;SDS011;35789;48.414;12.768;2022-10-16T13:50:01;5.8;;;1.8;;
49900;SDS011;35789;48.414;12.768;2022-10-16T13:55:00;5.8;;;1.8;;
49900;SDS011;35789;48.414;12.768;2022-10-16T14:00:00;5.8;;;1.8;;
49900;SDS011;35789;48.414;12.768;2022-10-16T14:05:01;5.8;;;1.8;;
49900;SDS011;35789;48.414;12.768;2022-10-16T14:10:03;4.0;;;1.2;;
49900;SDS011;35789;48.414;12.768;2022-10-16T14:15:00;4.0;;;1.2;;
49900;SDS011;35789;48.414;12.768;2022-10-16T14:20:02;4.0;;;1.2;;
49900;SDS011;35789;48.414;12.768;2022-10-16T14:25:00;4.0;;;1.2;;
49900;SDS011;35789;48.414;12.768;2022-10-16T14:30:12;4.0;;;1.2;;
49900;SDS011;35789;48.414;12.768;2022-10-16T14:35:00;4.0;;;1.2;;
49900;SDS011;35789;48.414;12.768;2022-10-16T14:40:01;4.7;;;1.5;;
49900;SDS011;35789;48.414;12.768;2022-10-16T14:45:00;4.7;;;1.5;;
49900;SDS011;35789;48.414;12.768;2022-10-16T14:50:00;4.7;;;1.5;;
49900;SDS011;35789;48.414;12.768;2022-10-16T14:55:00;4.7;;;1.5;;
49900;SDS011;35789;48.414;12.768;2022-10-16T15:00:00;4.7;;;1.5;;
49900;SDS011;35789;48.414;12.768;2022-10-16T15:05:10;4.7;;;1.5;;
49900;SDS011;35789;48.414;12.768;2022-10-16T15:10:00;16.6;;;9.1;;
49900;SDS011;35789;48.414;12.768;2022-10-16T15:15:00;16.6;;;9.1;;
49900;SDS011;35789;48.414;12.768;2022-10-16T15:20:00;16.6;;;9.1;;
49900;SDS011;35789;48.414;12.768;2022-10-16T15:25:00;16.6;;;9.1;;
49900;SDS011;35789;48.414;12.768;2022-10-16T15:30:00;16.6;;;9.1;;
49900;SDS011;35789;48.414;12.768;2022-10-16T15:35:00;16.6;;;9.1;;
49900;SDS011;35789;48.414;12.768;2022-10-16T15:40:00;8.7;;;3.3;;
49900;SDS011;35789;48.414;12.768;2022-10-16T15:45:00;8.7;;;3.3;;
49900;SDS011;35789;48.414;12.768;2022-10-16T15:50:00;8.7;;;3.3;;
49900;SDS011;35789;48.414;12.768;2022-10-16T15:55:00;8.7;;;3.3;;
49900;SDS011;35789;48.414;12.768;2022-10-16T16:00:00;8.7;;;3.3;;
49900;SDS011;35789;48.414;12.768;2022-10-16T16:05:00;8.7;;;3.3;;
49900;SDS011;35789;48.414;12.768;2022-10-16T16:10:00;13.5;;;5.9;;
49900;SDS011;35789;48.414;12.768;2022-10-16T16:15:00;13.5;;;5.9;;
49900;SDS011;35789;48.414;12.768;2022-10-16T16:20:00;13.5;;;5.9;;
49900;SDS011;35789;48.414;12.768;2022-10-16T16:25:00;13.5;;;5.9;;
49900;SDS011;35789;48.414;12.768;2022-10-16T16:30:00;13.5;;;5.9;;
49900;SDS011;35789;48.414;12.768;2022-10-16T16:35:00;13.5;;;5.9;;
49900;SDS011;35789;48.414;12.768;2022-10-16T16:40:00;7.5;;;3.7;;
49900;SDS011;35789;48.414;12.768;2022-10-16T16:45:00;7.5;;;3.7;;
49900;SDS011;35789;48.414;12.768;2022-10-16T16:50:00;7.5;;;3.7;;
49900;SDS011;35789;48.414;12.768;2022-10-16T16:55:00;7.5;;;3.7;;
49900;SDS011;35789;48.414;12.768;2022-10-16T17:00:00;7.5;;;3.7;;
49900;SDS011;35789;48.414;12.768;2022-10-16T17:05:00;7.5;;;3.7;;
49900;SDS011;35789;48.414;12.768;2022-10-16T17:10:00;11.1;;;3.5;;
49900;SDS011;35789;48.414;12.768;2022-10-16T17:15:00;11.1;;;3.5;;
49900;SDS011;35789;48.414;12.768;2022-10-16T17:20:00;11.1;;;3.5;;
49900;SDS011;35789;48.414;12.768;2022-10-16T17:25:00;11.1;;;3.5;;
49900;SDS011;35789;48.414;12.768;2022-10-16T17:30:00;11.1;;;3.5;;
49900;SDS011;35789;48.414;12.768;2022-10-16T17:35:00;11.1;;;3.5;;
49900;SDS011;35789;48.414;12.768;2022-10-16T17:40:00;8.1;;;4.4;;
49900;SDS011;35789;48.414;12.768;2022-10-16T17:45:00;8.1;;;4.4;;
49900;SDS011;35789;48.414;12.768;2022-10-16T17:50:00;8.1;;;4.4;;
49900;SDS011;35789;48.414;12.768;2022-10-16T17:55:00;8.1;;;4.4;;
49900;SDS011;35789;48.414;12.768;2022-10-16T18:00:00;8.1;;;4.4;;
49900;SDS011;35789;48.414;12.768;2022-10-16T18:05:00;8.1;;;4.4;;
49900;SDS011;35789;48.414;12.768;2022-10-16T18:10:00;9.9;;;4.9;;
49900;SDS011;35789;48.414;12.768;2022-10-16T18:15:00;9.9;;;4.9;;
49900;SDS011;35789;48.414;12.768;2022-10-16T18:20:00;9.9;;;4.9;;
49900;SDS011;35789;48.414;12.768;2022-10-16T18:25:00;9.9;;;4.9;;
49900;SDS011;35789;48.414;12.768;2022-10-16T18:30:00;9.9;;;4.9;;
49900;SDS011;35789;48.414;12.768;2022-10-16T18:35:00;9.9;;;4.9;;
49900;SDS011;35789;48.414;12.768;2022-10-16T18:40:00;16.9;;;9.6;;
49900;SDS011;35789;48.414;12.768;2022-10-16T18:45:00;16.9;;;9.6;;
49900;SDS011;35789;48.414;12.768;2022-10-16T18:50:00;16.9;;;9.6;;
49900;SDS011;35789;48.414;12.768;2022-10-16T18:55:00;16.9;;;9.6;;
49900;SDS011;35789;48.414;12.768;2022-10-16T19:00:00;16.9;;;9.6;;
49900;SDS011;35789;48.414;12.768;2022-10-16T19:05:00;16.9;;;9.6;;
49900;SDS011;35789;48.414;12.768;2022-10-16T19:10:00;11.1;;;5.7;;
49900;SDS011;35789;48.414;12.768;2022-10-16T19:15:00;unavailable;;;unavailable;;
49900;SDS011;35789;48.414;12.768;2022-10-16T19:20:00;11.1;;;5.7;;
49900;SDS011;35789;48.414;12.768;2022-10-16T19:25:00;11.1;;;5.7;;
49900;SDS011;35789;48.414;12.768;2022-10-16T19:30:00;11.1;;;5.7;;
49900;SDS011;35789;48.414;12.768;2022-10-16T19:35:00;11.1;;;5.7;;
49900;SDS011;35789;48.414;12.768;2022-10-16T19:40:00;12.0;;;5.6;;
49900;SDS011;35789;48.414;12.768;2022-10-16T19:45:00;12.0;;;5.6;;
49900;SDS011;35789;48.414;12.768;2022-10-16T19:50:00;12.0;;;5.6;;
49900;SDS011;35789;48.414;12.768;2022-10-16T19:55:00;12.0;;;5.6;;
49900;SDS011;35789;48.414;12.768;2022-10-16T20:00:00;12.0;;;5.6;;
49900;SDS011;35789;48.414;12.768;2022-10-16T20:05:00;12.0;;;5.6;;
49900;SDS011;35789;48.414;12.768;2022-10-16T20:10:00;12.9;;;6.0;;
49900;SDS011;35789;48.414;12.768;2022-10-16T20:15:00;12.9;;;6.0;;
49900;SDS011;35789;48.414;12.768;2022-10-16T20:20:00;12.9;;;6.0;;
49900;SDS011;35789;48.414;12.768;2022-10-16T20:25:00;12.9;;;6.0;;
49900;SDS011;35789;48.414;12.768;2022-10-16T20:30:00;12.9;;;6.0;;
49900;SDS011;35789;48.414;12.768;2022-10-16T20:35:00;12.9;;;6.0;;
49900;SDS011;35789;48.414;12.768;2022-10-16T20:40:00;13.1;;;6.3;;
49900;SDS011;35789;48.414;12.768;2022-10-16T20:45:00;13.1;;;6.3;;
49900;SDS011;35789;48.414;12.768;2022-10-16T20:50:00;13.1;;;6.3;;
49900;SDS011;35789;48.414;12.768;2022-10-16T20:55:00;13.1;;;6.3;;
49900;SDS011;35789;48.414;12.768;2022-10-16T21:00:00;13.1;;;6.3;;
49900;SDS011;35789;48.414;12.768;2022-10-16T21:05:00;13.1;;;6.3;;
49900;SDS011;35789;48.414;12.768;2022-10-16T21:10:00;9.8;;;4.9;;
49900;SDS011;35789;48.414;12.768;2022-10-16T21:15:00;9.8;;;4.9;;
49900;SDS011;35789;48.414;12.768;2022-10-16T21:20:00;9.8;;;4.9;;
49900;SDS011;35789;48.414;12.768;2022-10-16T21:25:00;9.8;;;4.9;;
49900;SDS011;35789;48.414;12.768;2022-10-16T21:30:00;9.8;;;4.9;;
49900;SDS011;35789;48.414;12.768;2022-10-16T21:35:00;9.8;;;4.9;;
49900;SDS011;35789;48.414;12.768;2022-10-16T21:40:00;12.5;;;5.8;;
49900;SDS011;35789;48.414;12.768;2022-10-16T21:45:00;12.5;;;5.8;;
49900;SDS011;35789;48.414;12.768;2022-10-16T21:50:00;12.5;;;5.8;;
49900;SDS011;35789;48.414;12.768;2022-10-16T21:55:00;12.5;;;5.8;;
49900;SDS011;35789;48.414;12.768;2022-10-16T22:00:00;12.5;;;5.8;;
49900;SDS011;35789;48.414;12.768;2022-10-16T22:05:00;12.5;;;5.8;;
49900;SDS011;35789;48.414;12.768;2022-10-16T22:10:00;12.1;;;4.9;;
49900;SDS011;35789;48.414;12.768;2022-10-16T22:15:00;12.1;;;4.9;;
49900;SDS011;35789;48.414;12.768;2022-10-16T22:20:00;12.1;;;4.9;;
49900;SDS011;35789;48.414;12.768;2022-10-16T22:25:00;12.1;;;4.9;;
49900;SDS011;35789;48.414;12.768;2022-10-16T22:30:00;12.1;;;4.9;;
49900;SDS011;35789;48.414;12.768;2022-10-16T22:35:00;21.1;;;6.7;;
49900;SDS011;35789;48.414;12.768;2022-10-16T22:40:00;21.1;;;6.7;;
49900;SDS011;35789;48.414;12.768;2022-10-16T22:45:00;21.1;;;6.7;;
49900;SDS011;35789;48.414;12.768;2022-10-16T22:50:00;21.1;;;6.7;;
49900;SDS011;35789;48.414;12.768;2022-10-16T22:55:00;21.1;;;6.7;;
49900;SDS011;35789;48.414;12.768;2022-10-16T23:00:00;21.1;;;6.7;;
49900;SDS011;35789;48.414;12.768;2022-10-16T23:05:00;10.3;;;5.9;;
49900;SDS011;35789;48.414;12.768;2022-10-16T23:10:00;10.3;;;5.9;;
49900;SDS011;35789;48.414;12.768;2022-10-16T23:15:00;10.3;;;5.9;;
49900;SDS011;35789;48.414;12.768;2022-10-16T23:20:00;10.3;;;5.9;;
49900;SDS011;35789;48.414;12.768;2022-10-16T23:25:00;10.3;;;5.9;;
49900;SDS011;35789;48.414;12.768;2022-10-16T23:30:00;10.3;;;5.9;;
49900;SDS011;35789;48.414;12.768;2022-10-16T23:35:00;15.5;;;6.6;;
49900;SDS011;35789;48.414;12.768;2022-10-16T23:40:00;15.5;;;6.6;;
49900;SDS011;35789;48.414;12.768;2022-10-16T23:45:00;15.5;;;6.6;;
49900;SDS011;35789;48.414;12.768;2022-10-16T23:50:00;15.5;;;6.6;;
49900;SDS011;35789;48.414;12.768;2022-10-16T23:55:00;15.5;;;6.6;;
